sensor_id;sensor_type;location;lat;lon;timestamp;P1;durP1;ratioP1;P2;durP2;ratioP2
57858;SDS011;49153;45.568;11.894;2023-02-15T00:03:43;131.48;;;59.63;;
57858;SDS011;49153;45.568;11.894;2023-02-15T00:06:26;127.90;;;59.38;;
57858;SDS011;49153;45.568;11.894;2023-02-15T00:09:32;129.43;;;56.35;;
57858;SDS011;49153;45.568;11.894;2023-02-15T00:12:26;125.50;;;58.30;;
57858;SDS011;49153;45.568;11.894;2023-02-15T00:15:23;133.18;;;60.38;;
57858;SDS011;49153;45.568;11.894;2023-02-15T00:18:51;125.43;;;56.83;;
57858;SDS011;49153;45.568;11.894;2023-02-15T00:24:25;118.50;;;57.48;;
57858;SDS011;49153;45.568;11.894;2023-02-15T00:27:24;127.68;;;60.53;;
57858;SDS011;49153;45.568;11.894;2023-02-15T00:33:30;115.57;;;55.30;;
57858;SDS011;49153;45.568;11.894;2023-02-15T00:36:38;123.75;;;56.72;;
57858;SDS011;49153;45.568;11.894;2023-02-15T00:39:33;120.38;;;55.10;;
57858;SDS011;49153;45.568;11.894;2023-02-15T00:42:24;113.03;;;53.28;;
57858;SDS011;49153;45.568;11.894;2023-02-15T00:49:02;110.40;;;50.55;;
57858;SDS011;49153;45.568;11.894;2023-02-15T00:52:07;105.82;;;50.00;;
57858;SDS011;49153;45.568;11.894;2023-02-15T00:55:33;108.28;;;49.67;;
57858;SDS011;49153;45.568;11.894;2023-02-15T00:58:25;118.80;;;55.58;;
57858;SDS011;49153;45.568;11.894;2023-02-15T01:03:47;114.68;;;53.10;;
57858;SDS011;49153;45.568;11.894;2023-02-15T01:12:36;102.78;;;49.74;;
57858;SDS011;49153;45.568;11.894;2023-02-15T01:15:34;120.03;;;55.78;;
57858;SDS011;49153;45.568;11.894;2023-02-15T01:18:31;114.82;;;51.35;;
57858;SDS011;49153;45.568;11.894;2023-02-15T01:21:13;119.15;;;53.03;;
57858;SDS011;49153;45.568;11.894;2023-02-15T01:24:11;116.28;;;54.20;;
57858;SDS011;49153;45.568;11.894;2023-02-15T01:27:06;122.45;;;55.83;;
57858;SDS011;49153;45.568;11.894;2023-02-15T01:30:21;98.07;;;47.70;;
57858;SDS011;49153;45.568;11.894;2023-02-15T01:33:32;107.15;;;51.13;;
57858;SDS011;49153;45.568;11.894;2023-02-15T01:37:06;108.63;;;50.38;;
57858;SDS011;49153;45.568;11.894;2023-02-15T01:40:17;113.03;;;51.92;;
57858;SDS011;49153;45.568;11.894;2023-02-15T01:43:45;118.78;;;52.33;;
57858;SDS011;49153;45.568;11.894;2023-02-15T01:46:39;118.22;;;55.35;;
57858;SDS011;49153;45.568;11.894;2023-02-15T01:49:34;123.07;;;55.60;;
57858;SDS011;49153;45.568;11.894;2023-02-15T01:56:43;113.97;;;53.90;;
57858;SDS011;49153;45.568;11.894;2023-02-15T01:59:58;119.75;;;53.05;;
57858;SDS011;49153;45.568;11.894;2023-02-15T02:03:31;112.10;;;51.15;;
57858;SDS011;49153;45.568;11.894;2023-02-15T02:06:51;102.68;;;48.35;;
57858;SDS011;49153;45.568;11.894;2023-02-15T02:10:21;117.90;;;55.20;;
57858;SDS011;49153;45.568;11.894;2023-02-15T02:13:43;124.57;;;57.25;;
57858;SDS011;49153;45.568;11.894;2023-02-15T02:16:45;127.00;;;56.65;;
57858;SDS011;49153;45.568;11.894;2023-02-15T02:36:40;121.28;;;53.03;;
57858;SDS011;49153;45.568;11.894;2023-02-15T02:39:56;122.15;;;55.13;;
57858;SDS011;49153;45.568;11.894;2023-02-15T02:43:01;107.68;;;50.97;;
57858;SDS011;49153;45.568;11.894;2023-02-15T02:46:30;106.65;;;49.53;;
57858;SDS011;49153;45.568;11.894;2023-02-15T02:49:43;105.95;;;50.30;;
57858;SDS011;49153;45.568;11.894;2023-02-15T02:55:53;108.43;;;49.88;;
57858;SDS011;49153;45.568;11.894;2023-02-15T02:59:12;114.15;;;52.33;;
57858;SDS011;49153;45.568;11.894;2023-02-15T03:02:42;122.40;;;55.40;;
57858;SDS011;49153;45.568;11.894;2023-02-15T03:11:09;105.30;;;48.85;;
57858;SDS011;49153;45.568;11.894;2023-02-15T03:14:37;114.57;;;51.57;;
57858;SDS011;49153;45.568;11.894;2023-02-15T03:17:31;114.68;;;52.20;;
57858;SDS011;49153;45.568;11.894;2023-02-15T03:20:56;109.82;;;49.67;;
57858;SDS011;49153;45.568;11.894;2023-02-15T03:24:28;110.60;;;50.60;;
57858;SDS011;49153;45.568;11.894;2023-02-15T03:28:20;103.68;;;48.97;;
57858;SDS011;49153;45.568;11.894;2023-02-15T03:31:09;112.10;;;50.20;;
57858;SDS011;49153;45.568;11.894;2023-02-15T03:34:25;117.38;;;51.53;;
57858;SDS011;49153;45.568;11.894;2023-02-15T03:37:53;109.85;;;50.70;;
57858;SDS011;49153;45.568;11.894;2023-02-15T03:44:15;108.53;;;49.92;;
57858;SDS011;49153;45.568;11.894;2023-02-15T03:50:30;102.72;;;46.88;;
57858;SDS011;49153;45.568;11.894;2023-02-15T03:53:53;110.35;;;49.83;;
57858;SDS011;49153;45.568;11.894;2023-02-15T03:56:55;102.38;;;47.83;;
57858;SDS011;49153;45.568;11.894;2023-02-15T04:00:28;105.28;;;50.65;;
57858;SDS011;49153;45.568;11.894;2023-02-15T04:07:15;105.93;;;49.88;;
57858;SDS011;49153;45.568;11.894;2023-02-15T04:10:44;117.82;;;53.05;;
57858;SDS011;49153;45.568;11.894;2023-02-15T04:13:56;105.07;;;51.03;;
57858;SDS011;49153;45.568;11.894;2023-02-15T04:17:23;110.90;;;50.63;;
57858;SDS011;49153;45.568;11.894;2023-02-15T04:20:28;105.13;;;49.75;;
57858;SDS011;49153;45.568;11.894;2023-02-15T04:23:55;109.70;;;51.83;;
57858;SDS011;49153;45.568;11.894;2023-02-15T04:27:22;111.13;;;50.33;;
57858;SDS011;49153;45.568;11.894;2023-02-15T04:30:28;117.07;;;55.38;;
57858;SDS011;49153;45.568;11.894;2023-02-15T04:33:27;112.30;;;54.25;;
57858;SDS011;49153;45.568;11.894;2023-02-15T04:36:50;111.03;;;50.72;;
57858;SDS011;49153;45.568;11.894;2023-02-15T04:39:45;120.60;;;55.00;;
57858;SDS011;49153;45.568;11.894;2023-02-15T04:42:33;120.53;;;54.88;;
57858;SDS011;49153;45.568;11.894;2023-02-15T04:45:37;110.88;;;53.20;;
57858;SDS011;49153;45.568;11.894;2023-02-15T04:48:54;111.32;;;53.70;;
57858;SDS011;49153;45.568;11.894;2023-02-15T04:52:19;111.82;;;51.53;;
57858;SDS011;49153;45.568;11.894;2023-02-15T04:55:19;117.68;;;54.80;;
57858;SDS011;49153;45.568;11.894;2023-02-15T04:58:26;119.28;;;55.80;;
57858;SDS011;49153;45.568;11.894;2023-02-15T05:01:38;105.43;;;49.00;;
57858;SDS011;49153;45.568;11.894;2023-02-15T05:04:48;116.07;;;54.08;;
57858;SDS011;49153;45.568;11.894;2023-02-15T05:07:28;115.82;;;52.55;;
57858;SDS011;49153;45.568;11.894;2023-02-15T05:10:33;114.93;;;53.45;;
57858;SDS011;49153;45.568;11.894;2023-02-15T05:13:23;107.07;;;50.00;;
57858;SDS011;49153;45.568;11.894;2023-02-15T05:16:53;113.47;;;51.13;;
57858;SDS011;49153;45.568;11.894;2023-02-15T05:19:43;100.32;;;49.03;;
57858;SDS011;49153;45.568;11.894;2023-02-15T05:22:38;100.60;;;48.13;;
57858;SDS011;49153;45.568;11.894;2023-02-15T05:25:49;107.13;;;50.00;;
57858;SDS011;49153;45.568;11.894;2023-02-15T05:28:32;103.35;;;48.55;;
57858;SDS011;49153;45.568;11.894;2023-02-15T05:33:27;111.50;;;53.83;;
57858;SDS011;49153;45.568;11.894;2023-02-15T05:36:39;100.25;;;48.47;;
57858;SDS011;49153;45.568;11.894;2023-02-15T05:39:44;103.60;;;46.97;;
57858;SDS011;49153;45.568;11.894;2023-02-15T05:42:29;116.68;;;54.72;;
57858;SDS011;49153;45.568;11.894;2023-02-15T05:46:05;104.88;;;48.90;;
57858;SDS011;49153;45.568;11.894;2023-02-15T05:49:21;97.88;;;47.03;;
57858;SDS011;49153;45.568;11.894;2023-02-15T05:52:43;102.35;;;47.83;;
57858;SDS011;49153;45.568;11.894;2023-02-15T05:55:39;106.03;;;49.22;;
57858;SDS011;49153;45.568;11.894;2023-02-15T05:59:07;111.25;;;48.45;;
57858;SDS011;49153;45.568;11.894;2023-02-15T06:02:14;110.47;;;50.17;;
57858;SDS011;49153;45.568;11.894;2023-02-15T06:05:33;114.75;;;53.15;;
57858;SDS011;49153;45.568;11.894;2023-02-15T06:15:30;104.82;;;48.85;;
57858;SDS011;49153;45.568;11.894;2023-02-15T06:18:57;102.63;;;47.67;;
57858;SDS011;49153;45.568;11.894;2023-02-15T06:30:47;101.60;;;48.65;;
57858;SDS011;49153;45.568;11.894;2023-02-15T06:33:31;102.32;;;49.03;;
57858;SDS011;49153;45.568;11.894;2023-02-15T06:37:06;105.95;;;47.42;;
57858;SDS011;49153;45.568;11.894;2023-02-15T06:40:14;113.80;;;51.63;;
57858;SDS011;49153;45.568;11.894;2023-02-15T06:43:21;101.80;;;45.92;;
57858;SDS011;49153;45.568;11.894;2023-02-15T06:46:29;99.85;;;46.63;;
57858;SDS011;49153;45.568;11.894;2023-02-15T06:49:25;109.47;;;50.10;;
57858;SDS011;49153;45.568;11.894;2023-02-15T06:53:02;115.55;;;50.45;;
57858;SDS011;49153;45.568;11.894;2023-02-15T06:56:27;113.07;;;54.60;;
57858;SDS011;49153;45.568;11.894;2023-02-15T06:59:48;115.88;;;50.58;;
57858;SDS011;49153;45.568;11.894;2023-02-15T07:02:43;110.32;;;51.65;;
57858;SDS011;49153;45.568;11.894;2023-02-15T07:05:26;103.45;;;48.60;;
57858;SDS011;49153;45.568;11.894;2023-02-15T07:08:52;109.32;;;48.63;;
57858;SDS011;49153;45.568;11.894;2023-02-15T07:11:57;110.43;;;48.38;;
57858;SDS011;49153;45.568;11.894;2023-02-15T07:15:33;110.57;;;50.33;;
57858;SDS011;49153;45.568;11.894;2023-02-15T07:21:59;114.15;;;52.97;;
57858;SDS011;49153;45.568;11.894;2023-02-15T07:25:40;107.63;;;50.42;;
57858;SDS011;49153;45.568;11.894;2023-02-15T07:28:25;120.35;;;53.70;;
57858;SDS011;49153;45.568;11.894;2023-02-15T07:31:13;117.25;;;53.53;;
57858;SDS011;49153;45.568;11.894;2023-02-15T07:38:02;114.47;;;51.90;;
57858;SDS011;49153;45.568;11.894;2023-02-15T07:40:30;114.95;;;52.55;;
57858;SDS011;49153;45.568;11.894;2023-02-15T07:47:12;113.53;;;53.40;;
57858;SDS011;49153;45.568;11.894;2023-02-15T07:50:52;103.03;;;45.03;;
57858;SDS011;49153;45.568;11.894;2023-02-15T07:54:02;120.45;;;52.53;;
57858;SDS011;49153;45.568;11.894;2023-02-15T07:57:16;102.28;;;48.63;;
57858;SDS011;49153;45.568;11.894;2023-02-15T08:00:23;100.28;;;47.10;;
57858;SDS011;49153;45.568;11.894;2023-02-15T08:03:29;101.22;;;47.33;;
57858;SDS011;49153;45.568;11.894;2023-02-15T08:09:30;156.24;;;66.94;;
57858;SDS011;49153;45.568;11.894;2023-02-15T08:12:56;146.50;;;64.47;;
57858;SDS011;49153;45.568;11.894;2023-02-15T08:15:33;111.28;;;55.13;;
57858;SDS011;49153;45.568;11.894;2023-02-15T08:19:03;109.88;;;54.35;;
57858;SDS011;49153;45.568;11.894;2023-02-15T08:21:53;114.75;;;53.58;;
57858;SDS011;49153;45.568;11.894;2023-02-15T08:25:13;117.65;;;53.45;;
57858;SDS011;49153;45.568;11.894;2023-02-15T08:28:22;84.85;;;42.92;;
57858;SDS011;49153;45.568;11.894;2023-02-15T08:31:28;83.30;;;43.13;;
57858;SDS011;49153;45.568;11.894;2023-02-15T08:33:54;90.07;;;45.88;;
57858;SDS011;49153;45.568;11.894;2023-02-15T08:37:10;88.75;;;44.45;;
57858;SDS011;49153;45.568;11.894;2023-02-15T08:40:22;92.25;;;47.22;;
57858;SDS011;49153;45.568;11.894;2023-02-15T08:43:38;84.10;;;42.25;;
57858;SDS011;49153;45.568;11.894;2023-02-15T08:46:41;77.38;;;39.45;;
57858;SDS011;49153;45.568;11.894;2023-02-15T08:49:49;72.53;;;38.25;;
57858;SDS011;49153;45.568;11.894;2023-02-15T08:52:42;73.97;;;38.78;;
57858;SDS011;49153;45.568;11.894;2023-02-15T08:55:39;79.57;;;39.53;;
57858;SDS011;49153;45.568;11.894;2023-02-15T08:58:29;78.43;;;40.08;;
57858;SDS011;49153;45.568;11.894;2023-02-15T09:01:34;69.38;;;36.55;;
57858;SDS011;49153;45.568;11.894;2023-02-15T09:04:57;70.60;;;38.00;;
57858;SDS011;49153;45.568;11.894;2023-02-15T09:08:06;82.40;;;42.83;;
57858;SDS011;49153;45.568;11.894;2023-02-15T09:10:46;74.90;;;39.83;;
57858;SDS011;49153;45.568;11.894;2023-02-15T09:14:01;69.15;;;37.17;;
57858;SDS011;49153;45.568;11.894;2023-02-15T09:16:57;65.82;;;36.03;;
57858;SDS011;49153;45.568;11.894;2023-02-15T09:19:23;57.35;;;31.63;;
57858;SDS011;49153;45.568;11.894;2023-02-15T09:21:49;59.13;;;32.15;;
57858;SDS011;49153;45.568;11.894;2023-02-15T09:24:16;56.05;;;27.08;;
57858;SDS011;49153;45.568;11.894;2023-02-15T09:26:43;54.50;;;30.02;;
57858;SDS011;49153;45.568;11.894;2023-02-15T09:29:10;55.47;;;29.45;;
57858;SDS011;49153;45.568;11.894;2023-02-15T09:31:38;61.35;;;33.67;;
57858;SDS011;49153;45.568;11.894;2023-02-15T09:34:06;60.78;;;34.22;;
57858;SDS011;49153;45.568;11.894;2023-02-15T09:36:33;61.65;;;33.92;;
57858;SDS011;49153;45.568;11.894;2023-02-15T09:55:20;51.58;;;28.42;;
57858;SDS011;49153;45.568;11.894;2023-02-15T09:58:13;53.67;;;28.58;;
57858;SDS011;49153;45.568;11.894;2023-02-15T10:11:24;59.22;;;32.10;;
57858;SDS011;49153;45.568;11.894;2023-02-15T10:17:14;55.03;;;29.70;;
57858;SDS011;49153;45.568;11.894;2023-02-15T10:22:37;46.22;;;25.67;;
57858;SDS011;49153;45.568;11.894;2023-02-15T10:25:31;42.88;;;23.58;;
57858;SDS011;49153;45.568;11.894;2023-02-15T10:28:09;49.03;;;26.42;;
57858;SDS011;49153;45.568;11.894;2023-02-15T10:30:50;43.80;;;24.20;;
57858;SDS011;49153;45.568;11.894;2023-02-15T10:50:09;51.47;;;28.65;;
57858;SDS011;49153;45.568;11.894;2023-02-15T11:06:16;72.50;;;37.67;;
57858;SDS011;49153;45.568;11.894;2023-02-15T11:08:46;162.23;;;82.78;;
57858;SDS011;49153;45.568;11.894;2023-02-15T11:11:24;49.65;;;28.05;;
57858;SDS011;49153;45.568;11.894;2023-02-15T11:13:59;45.50;;;24.67;;
57858;SDS011;49153;45.568;11.894;2023-02-15T11:16:32;39.78;;;23.08;;
57858;SDS011;49153;45.568;11.894;2023-02-15T11:19:06;38.60;;;21.42;;
57858;SDS011;49153;45.568;11.894;2023-02-15T11:21:42;38.65;;;21.02;;
57858;SDS011;49153;45.568;11.894;2023-02-15T11:24:12;42.58;;;23.05;;
57858;SDS011;49153;45.568;11.894;2023-02-15T11:26:42;34.80;;;19.85;;
57858;SDS011;49153;45.568;11.894;2023-02-15T11:32:19;36.72;;;20.20;;
57858;SDS011;49153;45.568;11.894;2023-02-15T11:34:53;37.60;;;19.15;;
57858;SDS011;49153;45.568;11.894;2023-02-15T11:38:10;36.08;;;19.00;;
57858;SDS011;49153;45.568;11.894;2023-02-15T11:40:30;33.63;;;18.57;;
57858;SDS011;49153;45.568;11.894;2023-02-15T11:43:01;32.72;;;17.48;;
57858;SDS011;49153;45.568;11.894;2023-02-15T11:45:32;29.55;;;16.67;;
57858;SDS011;49153;45.568;11.894;2023-02-15T11:48:08;33.92;;;18.95;;
57858;SDS011;49153;45.568;11.894;2023-02-15T11:50:36;31.00;;;17.92;;
57858;SDS011;49153;45.568;11.894;2023-02-15T11:53:03;36.33;;;19.65;;
57858;SDS011;49153;45.568;11.894;2023-02-15T11:55:31;37.50;;;20.50;;
57858;SDS011;49153;45.568;11.894;2023-02-15T12:00:58;40.55;;;22.05;;
57858;SDS011;49153;45.568;11.894;2023-02-15T12:05:58;40.15;;;24.17;;
57858;SDS011;49153;45.568;11.894;2023-02-15T12:08:36;41.30;;;23.90;;
57858;SDS011;49153;45.568;11.894;2023-02-15T12:11:07;38.55;;;21.90;;
57858;SDS011;49153;45.568;11.894;2023-02-15T12:13:46;41.08;;;22.85;;
57858;SDS011;49153;45.568;11.894;2023-02-15T12:16:19;48.75;;;27.27;;
57858;SDS011;49153;45.568;11.894;2023-02-15T12:18:45;41.58;;;24.63;;
57858;SDS011;49153;45.568;11.894;2023-02-15T12:21:13;42.90;;;24.70;;
57858;SDS011;49153;45.568;11.894;2023-02-15T12:23:51;43.40;;;24.20;;
57858;SDS011;49153;45.568;11.894;2023-02-15T12:26:25;41.10;;;24.45;;
57858;SDS011;49153;45.568;11.894;2023-02-15T12:28:52;41.53;;;22.92;;
57858;SDS011;49153;45.568;11.894;2023-02-15T12:31:32;46.47;;;26.60;;
57858;SDS011;49153;45.568;11.894;2023-02-15T12:34:09;46.97;;;26.70;;
57858;SDS011;49153;45.568;11.894;2023-02-15T12:36:46;44.42;;;25.73;;
57858;SDS011;49153;45.568;11.894;2023-02-15T12:39:22;47.55;;;26.50;;
57858;SDS011;49153;45.568;11.894;2023-02-15T12:44:21;48.20;;;27.85;;
57858;SDS011;49153;45.568;11.894;2023-02-15T12:49:25;51.20;;;28.70;;
57858;SDS011;49153;45.568;11.894;2023-02-15T12:52:02;45.90;;;27.27;;
57858;SDS011;49153;45.568;11.894;2023-02-15T12:54:48;46.50;;;27.55;;
57858;SDS011;49153;45.568;11.894;2023-02-15T12:59:53;48.85;;;26.65;;
57858;SDS011;49153;45.568;11.894;2023-02-15T13:02:26;39.30;;;22.40;;
57858;SDS011;49153;45.568;11.894;2023-02-15T13:04:55;47.13;;;25.48;;
57858;SDS011;49153;45.568;11.894;2023-02-15T13:07:23;45.30;;;25.77;;
57858;SDS011;49153;45.568;11.894;2023-02-15T13:09:50;43.45;;;25.05;;
57858;SDS011;49153;45.568;11.894;2023-02-15T13:12:18;41.63;;;25.52;;
57858;SDS011;49153;45.568;11.894;2023-02-15T13:14:48;41.38;;;25.92;;
57858;SDS011;49153;45.568;11.894;2023-02-15T13:17:24;42.00;;;24.20;;
57858;SDS011;49153;45.568;11.894;2023-02-15T13:19:54;44.65;;;26.33;;
57858;SDS011;49153;45.568;11.894;2023-02-15T13:22:42;45.95;;;25.73;;
57858;SDS011;49153;45.568;11.894;2023-02-15T13:25:21;41.67;;;25.50;;
57858;SDS011;49153;45.568;11.894;2023-02-15T13:27:52;40.80;;;24.10;;
57858;SDS011;49153;45.568;11.894;2023-02-15T13:32:54;49.92;;;28.63;;
57858;SDS011;49153;45.568;11.894;2023-02-15T13:35:22;50.35;;;27.33;;
57858;SDS011;49153;45.568;11.894;2023-02-15T13:43:30;46.38;;;26.02;;
57858;SDS011;49153;45.568;11.894;2023-02-15T13:46:33;48.72;;;27.35;;
57858;SDS011;49153;45.568;11.894;2023-02-15T13:49:30;39.08;;;22.65;;
57858;SDS011;49153;45.568;11.894;2023-02-15T13:52:08;48.42;;;28.20;;
57858;SDS011;49153;45.568;11.894;2023-02-15T13:54:53;46.60;;;26.75;;
57858;SDS011;49153;45.568;11.894;2023-02-15T14:00:17;42.40;;;24.33;;
57858;SDS011;49153;45.568;11.894;2023-02-15T14:03:24;47.75;;;25.65;;
57858;SDS011;49153;45.568;11.894;2023-02-15T14:22:46;40.90;;;22.20;;
57858;SDS011;49153;45.568;11.894;2023-02-15T14:25:28;42.67;;;23.42;;
57858;SDS011;49153;45.568;11.894;2023-02-15T14:30:26;47.45;;;25.50;;
57858;SDS011;49153;45.568;11.894;2023-02-15T14:33:08;43.08;;;25.05;;
57858;SDS011;49153;45.568;11.894;2023-02-15T14:35:53;45.50;;;24.20;;
57858;SDS011;49153;45.568;11.894;2023-02-15T14:44:01;41.00;;;22.75;;
57858;SDS011;49153;45.568;11.894;2023-02-15T14:49:12;37.50;;;20.70;;
57858;SDS011;49153;45.568;11.894;2023-02-15T14:59:29;44.47;;;22.63;;
57858;SDS011;49153;45.568;11.894;2023-02-15T15:07:23;45.17;;;24.13;;
57858;SDS011;49153;45.568;11.894;2023-02-15T15:09:59;44.55;;;24.27;;
57858;SDS011;49153;45.568;11.894;2023-02-15T15:14:50;43.25;;;23.33;;
57858;SDS011;49153;45.568;11.894;2023-02-15T15:20:10;47.45;;;24.38;;
57858;SDS011;49153;45.568;11.894;2023-02-15T15:22:42;45.67;;;24.48;;
57858;SDS011;49153;45.568;11.894;2023-02-15T15:27:56;44.30;;;23.50;;
57858;SDS011;49153;45.568;11.894;2023-02-15T15:41:04;46.40;;;24.55;;
57858;SDS011;49153;45.568;11.894;2023-02-15T15:49:46;48.60;;;25.98;;
57858;SDS011;49153;45.568;11.894;2023-02-15T15:52:14;50.50;;;26.92;;
57858;SDS011;49153;45.568;11.894;2023-02-15T15:54:41;47.65;;;25.85;;
57858;SDS011;49153;45.568;11.894;2023-02-15T15:57:14;49.05;;;25.88;;
57858;SDS011;49153;45.568;11.894;2023-02-15T15:59:46;48.78;;;25.95;;
57858;SDS011;49153;45.568;11.894;2023-02-15T16:02:15;47.58;;;25.15;;
57858;SDS011;49153;45.568;11.894;2023-02-15T16:04:42;50.42;;;25.67;;
57858;SDS011;49153;45.568;11.894;2023-02-15T16:10:02;49.08;;;25.70;;
57858;SDS011;49153;45.568;11.894;2023-02-15T16:12:30;49.45;;;25.58;;
57858;SDS011;49153;45.568;11.894;2023-02-15T16:14:59;49.58;;;26.70;;
57858;SDS011;49153;45.568;11.894;2023-02-15T16:17:30;50.17;;;26.55;;
57858;SDS011;49153;45.568;11.894;2023-02-15T16:20:01;49.72;;;26.70;;
57858;SDS011;49153;45.568;11.894;2023-02-15T16:22:32;53.75;;;27.52;;
57858;SDS011;49153;45.568;11.894;2023-02-15T16:27:44;52.85;;;26.38;;
57858;SDS011;49153;45.568;11.894;2023-02-15T16:33:04;57.40;;;27.63;;
57858;SDS011;49153;45.568;11.894;2023-02-15T16:35:32;53.40;;;26.98;;
57858;SDS011;49153;45.568;11.894;2023-02-15T16:37:57;61.92;;;29.27;;
57858;SDS011;49153;45.568;11.894;2023-02-15T16:42:49;56.78;;;28.27;;
57858;SDS011;49153;45.568;11.894;2023-02-15T16:45:16;61.00;;;29.92;;
57858;SDS011;49153;45.568;11.894;2023-02-15T16:47:45;56.72;;;30.42;;
57858;SDS011;49153;45.568;11.894;2023-02-15T16:50:20;58.17;;;28.75;;
57858;SDS011;49153;45.568;11.894;2023-02-15T16:52:49;55.92;;;27.00;;
57858;SDS011;49153;45.568;11.894;2023-02-15T16:55:30;56.95;;;28.58;;
57858;SDS011;49153;45.568;11.894;2023-02-15T16:58:04;59.38;;;29.30;;
57858;SDS011;49153;45.568;11.894;2023-02-15T17:00:33;58.95;;;28.77;;
57858;SDS011;49153;45.568;11.894;2023-02-15T17:03:02;50.00;;;25.33;;
57858;SDS011;49153;45.568;11.894;2023-02-15T17:05:32;51.75;;;25.52;;
57858;SDS011;49153;45.568;11.894;2023-02-15T17:11:32;54.60;;;26.40;;
57858;SDS011;49153;45.568;11.894;2023-02-15T17:16:36;53.63;;;26.50;;
57858;SDS011;49153;45.568;11.894;2023-02-15T17:19:02;58.70;;;28.17;;
57858;SDS011;49153;45.568;11.894;2023-02-15T17:21:40;59.75;;;29.02;;
57858;SDS011;49153;45.568;11.894;2023-02-15T17:24:15;59.97;;;28.35;;
57858;SDS011;49153;45.568;11.894;2023-02-15T17:26:45;60.42;;;30.48;;
57858;SDS011;49153;45.568;11.894;2023-02-15T17:29:23;64.10;;;33.13;;
57858;SDS011;49153;45.568;11.894;2023-02-15T17:31:51;67.82;;;33.72;;
57858;SDS011;49153;45.568;11.894;2023-02-15T17:37:12;70.07;;;36.25;;
57858;SDS011;49153;45.568;11.894;2023-02-15T17:39:59;74.30;;;37.45;;
57858;SDS011;49153;45.568;11.894;2023-02-15T17:42:25;75.45;;;37.33;;
57858;SDS011;49153;45.568;11.894;2023-02-15T17:50:59;71.88;;;32.05;;
57858;SDS011;49153;45.568;11.894;2023-02-15T17:53:26;71.85;;;34.10;;
57858;SDS011;49153;45.568;11.894;2023-02-15T17:55:52;68.25;;;33.47;;
57858;SDS011;49153;45.568;11.894;2023-02-15T17:58:18;73.32;;;36.25;;
57858;SDS011;49153;45.568;11.894;2023-02-15T18:00:45;69.85;;;34.47;;
57858;SDS011;49153;45.568;11.894;2023-02-15T18:03:47;75.95;;;35.83;;
57858;SDS011;49153;45.568;11.894;2023-02-15T18:06:36;69.43;;;36.08;;
57858;SDS011;49153;45.568;11.894;2023-02-15T18:09:22;75.93;;;36.13;;
57858;SDS011;49153;45.568;11.894;2023-02-15T18:12:26;70.97;;;34.97;;
57858;SDS011;49153;45.568;11.894;2023-02-15T18:14:53;71.65;;;35.17;;
57858;SDS011;49153;45.568;11.894;2023-02-15T18:17:25;74.35;;;36.05;;
57858;SDS011;49153;45.568;11.894;2023-02-15T18:19:54;74.15;;;35.20;;
57858;SDS011;49153;45.568;11.894;2023-02-15T18:22:19;71.07;;;36.22;;
57858;SDS011;49153;45.568;11.894;2023-02-15T18:24:46;72.90;;;36.95;;
57858;SDS011;49153;45.568;11.894;2023-02-15T18:27:12;72.15;;;37.05;;
57858;SDS011;49153;45.568;11.894;2023-02-15T18:29:39;74.38;;;38.08;;
57858;SDS011;49153;45.568;11.894;2023-02-15T18:32:12;69.18;;;35.42;;
57858;SDS011;49153;45.568;11.894;2023-02-15T18:34:49;76.82;;;37.13;;
57858;SDS011;49153;45.568;11.894;2023-02-15T18:37:17;73.10;;;36.28;;
57858;SDS011;49153;45.568;11.894;2023-02-15T18:39:48;73.22;;;35.95;;
57858;SDS011;49153;45.568;11.894;2023-02-15T18:44:59;79.97;;;38.53;;
57858;SDS011;49153;45.568;11.894;2023-02-15T18:47:28;73.88;;;35.63;;
57858;SDS011;49153;45.568;11.894;2023-02-15T18:49:53;68.95;;;33.88;;
57858;SDS011;49153;45.568;11.894;2023-02-15T18:52:20;70.43;;;35.88;;
57858;SDS011;49153;45.568;11.894;2023-02-15T18:54:48;75.32;;;37.03;;
57858;SDS011;49153;45.568;11.894;2023-02-15T18:57:17;72.82;;;35.80;;
57858;SDS011;49153;45.568;11.894;2023-02-15T18:59:42;77.63;;;38.08;;
57858;SDS011;49153;45.568;11.894;2023-02-15T19:02:17;69.22;;;36.03;;
57858;SDS011;49153;45.568;11.894;2023-02-15T19:04:44;76.57;;;36.70;;
57858;SDS011;49153;45.568;11.894;2023-02-15T19:09:47;75.05;;;37.10;;
57858;SDS011;49153;45.568;11.894;2023-02-15T19:12:16;70.78;;;35.55;;
57858;SDS011;49153;45.568;11.894;2023-02-15T19:14:43;82.68;;;39.83;;
57858;SDS011;49153;45.568;11.894;2023-02-15T19:17:13;77.35;;;37.85;;
57858;SDS011;49153;45.568;11.894;2023-02-15T19:19:40;85.72;;;40.42;;
57858;SDS011;49153;45.568;11.894;2023-02-15T19:22:08;71.38;;;35.38;;
57858;SDS011;49153;45.568;11.894;2023-02-15T19:24:38;76.97;;;37.45;;
57858;SDS011;49153;45.568;11.894;2023-02-15T19:27:06;85.68;;;40.03;;
57858;SDS011;49153;45.568;11.894;2023-02-15T19:29:42;91.57;;;42.83;;
57858;SDS011;49153;45.568;11.894;2023-02-15T19:32:08;81.28;;;39.42;;
57858;SDS011;49153;45.568;11.894;2023-02-15T19:34:35;93.18;;;44.85;;
57858;SDS011;49153;45.568;11.894;2023-02-15T19:37:01;83.70;;;41.38;;
57858;SDS011;49153;45.568;11.894;2023-02-15T19:39:28;79.53;;;39.95;;
57858;SDS011;49153;45.568;11.894;2023-02-15T19:41:59;88.75;;;43.55;;
57858;SDS011;49153;45.568;11.894;2023-02-15T19:44:24;86.60;;;42.70;;
57858;SDS011;49153;45.568;11.894;2023-02-15T19:46:50;87.50;;;43.28;;
57858;SDS011;49153;45.568;11.894;2023-02-15T19:49:15;96.60;;;45.78;;
57858;SDS011;49153;45.568;11.894;2023-02-15T19:51:41;99.43;;;46.40;;
57858;SDS011;49153;45.568;11.894;2023-02-15T19:54:49;100.63;;;47.22;;
57858;SDS011;49153;45.568;11.894;2023-02-15T19:56:59;99.65;;;45.50;;
57858;SDS011;49153;45.568;11.894;2023-02-15T20:01:52;96.18;;;46.38;;
57858;SDS011;49153;45.568;11.894;2023-02-15T20:04:18;100.80;;;47.03;;
57858;SDS011;49153;45.568;11.894;2023-02-15T20:06:44;106.95;;;48.63;;
57858;SDS011;49153;45.568;11.894;2023-02-15T20:09:18;113.93;;;53.63;;
57858;SDS011;49153;45.568;11.894;2023-02-15T20:11:45;110.18;;;54.33;;
57858;SDS011;49153;45.568;11.894;2023-02-15T20:14:12;116.93;;;53.55;;
57858;SDS011;49153;45.568;11.894;2023-02-15T20:16:38;112.65;;;53.72;;
57858;SDS011;49153;45.568;11.894;2023-02-15T20:19:03;107.03;;;49.75;;
57858;SDS011;49153;45.568;11.894;2023-02-15T20:21:29;114.38;;;52.83;;
57858;SDS011;49153;45.568;11.894;2023-02-15T20:23:54;102.88;;;50.30;;
57858;SDS011;49153;45.568;11.894;2023-02-15T20:26:20;105.10;;;51.00;;
57858;SDS011;49153;45.568;11.894;2023-02-15T20:28:47;113.10;;;56.70;;
57858;SDS011;49153;45.568;11.894;2023-02-15T20:31:16;110.57;;;51.90;;
57858;SDS011;49153;45.568;11.894;2023-02-15T20:33:44;110.68;;;51.20;;
57858;SDS011;49153;45.568;11.894;2023-02-15T20:36:11;124.07;;;57.10;;
57858;SDS011;49153;45.568;11.894;2023-02-15T20:38:39;131.05;;;57.83;;
57858;SDS011;49153;45.568;11.894;2023-02-15T20:41:04;115.05;;;54.28;;